Golfcrest, MI

9:33 AM EDT on March 30, 2017 (GMT -0400)
| | Change Station

Elev -9999 ft 0.00 °N, 0.00 °E | Updated

Light Rain
Light Rain
°F
Feels Like °F
N
Wind Variable Wind from North
Gusts mph

Today
High -- | Low -- °F
--% Chance of Precip.
Yesterday
High -- | Low -- °F
Precip. -- in
Pressure 30.00 in
Visibility 1.8 miles
Clouds Scattered Clouds 1800 ft
Mostly Cloudy 5000 ft
Overcast 7000 ft
Dew Point Not available.
Humidity Not available.
Rainfall --
Snow Depth Not available.
7:19 AM 7:57 PM
Waxing Crescent, 8% visible
METAR KTTF 301314Z AUTO 05011G14KT 1 3/4SM -RA SCT018 BKN050 OVC070 03/03 A3000 RMK AO2 P0006 T00330025
Pressure 30.00 in
Visibility 1.8 miles
Clouds Scattered Clouds 1800 ft
Mostly Cloudy 5000 ft
Overcast 7000 ft
Dew Point Not available.
Humidity Not available.
Rainfall --
Snow Depth Not available.
7:19 AM 7:57 PM
Waxing Crescent, 8% visible
METAR KTTF 301314Z AUTO 05011G14KT 1 3/4SM -RA SCT018 BKN050 OVC070 03/03 A3000 RMK AO2 P0006 T00330025

Get Severe Weather Alerts

Thanks for signing up!

Be on the lookout for a verification email in your inbox.

You'll start receiving the daily forecast at 8 AM.

×

10-Day Weather Forecast

Almanac

Astronomy

Mar. 30, 2017 Rise Set
Actual Time
Civil Twilight
Nautical Twilight
Astronomical Twilight
Moon
Length of Visible Light
Length of Day
Tomorrow will be .
, % of the Moon is Illuminated

Today's Extremes

State Highs State Lows

Community

WunderPhotos

Upload Photos

1,962,540 photos uploaded!

WunderBlog® & News

Nearby

Air Quality

  Air Quality AQ Index Pollutant
Not available.

Snow Depth

Station Depth Elevation

Earthquake Activity

City Distance Mag. Time & Date
Minimum magnitude displayed is 2.5.

Earthquake Activity

City Distance Mag. Time & Date
Minimum magnitude displayed is 2.5.

Coastal Water Temperatures

Place Temperature

Stations

Nearby Weather Stations

Station Location Temp. Windchill Dew Point Humidity Wind Precip. Elev Updated Type
                   

Watches & Warnings

There are currently no watches in effect.